createdAt,value
2023-08-29T00:00:00.009Z,93887.72
2023-08-29T00:02:27.091Z,93890.16
2023-08-29T00:04:56.742Z,93886.19
2023-08-29T00:07:23.484Z,93883.31
2023-08-29T00:09:51.302Z,93885.41
2023-08-29T00:12:18.443Z,93891.31
2023-08-29T00:14:46.386Z,93885.72
2023-08-29T00:17:13.355Z,93886.25
2023-08-29T00:19:40.579Z,93890.78
2023-08-29T00:22:10.751Z,93887.56
2023-08-29T00:24:37.932Z,93883.56
2023-08-29T00:27:05.792Z,93896.84
2023-08-29T00:29:32.577Z,93893.16
2023-08-29T00:31:59.535Z,93889.03
2023-08-29T00:34:27.045Z,93896.88
2023-08-29T00:36:54.096Z,93892.91
2023-08-29T00:39:20.946Z,93887.72
2023-08-29T00:41:47.869Z,93885.09
2023-08-29T00:44:14.596Z,93890.69
2023-08-29T00:46:42.282Z,93890.41
2023-08-29T00:49:09.252Z,93884.75
2023-08-29T00:51:36.533Z,93883.31
2023-08-29T00:54:03.801Z,93888.09
2023-08-29T00:56:30.703Z,93891.44
2023-08-29T00:58:57.963Z,93889.47
2023-08-29T01:01:24.733Z,93886.69
2023-08-29T01:03:51.764Z,93888.09
2023-08-29T01:06:25.523Z,93880.75
2023-08-29T01:08:52.900Z,93878.47
2023-08-29T01:11:57.355Z,93882.22
2023-08-29T01:14:45.450Z,93882.88
2023-08-29T01:17:32.629Z,93880.41
2023-08-29T01:20:07.431Z,93877.16
2023-08-29T01:22:46.571Z,93879.41
2023-08-29T01:25:31.237Z,93876.34
2023-08-29T01:27:58.016Z,93876.50
2023-08-29T01:30:25.184Z,93878.88
2023-08-29T01:32:52.024Z,93878.97
2023-08-29T01:35:18.959Z,93883.78
2023-08-29T01:37:46.167Z,93880.78
2023-08-29T01:40:12.946Z,93880.56
2023-08-29T01:42:42.714Z,93884.44
2023-08-29T01:45:10.359Z,93889.16
2023-08-29T01:47:37.956Z,93885.50
2023-08-29T01:50:06.503Z,93882.56
2023-08-29T01:52:34.056Z,93885.44
2023-08-29T01:55:00.803Z,93881.97
2023-08-29T01:57:28.617Z,93884.59
2023-08-29T01:59:55.774Z,93887.72
2023-08-29T02:02:24.865Z,93873.88
2023-08-29T02:04:52.052Z,93868.69
2023-08-29T02:07:18.797Z,93866.84
2023-08-29T02:09:46.649Z,93864.91
2023-08-29T02:12:15.714Z,93863.97
2023-08-29T02:14:42.827Z,93866.28
2023-08-29T02:17:09.766Z,93857.25
2023-08-29T02:19:36.934Z,93859.31
2023-08-29T02:22:04.045Z,93858.25
2023-08-29T02:24:33.855Z,93851.91
2023-08-29T02:27:00.819Z,93853.72
2023-08-29T02:29:32.186Z,93849.78
2023-08-29T02:31:58.902Z,93858.13
2023-08-29T02:34:25.632Z,93851.44
2023-08-29T02:36:53.334Z,93851.44
2023-08-29T02:39:20.377Z,93847.63
2023-08-29T02:41:47.204Z,93848.47
2023-08-29T02:44:14.410Z,93852.72
2023-08-29T02:46:41.222Z,93858.13
2023-08-29T02:49:09.476Z,93859.50
2023-08-29T02:51:36.225Z,93848.66
2023-08-29T02:54:04.041Z,93850.28
2023-08-29T02:56:31.217Z,93855.81
2023-08-29T02:58:58.079Z,93856.22
2023-08-29T03:01:25.846Z,93851.06
2023-08-29T03:03:52.636Z,93858.84
2023-08-29T03:06:19.538Z,93850.69
2023-08-29T03:08:46.808Z,93845.94
2023-08-29T03:11:14.566Z,93851.28
2023-08-29T03:13:42.030Z,93847.41
2023-08-29T03:16:18.935Z,93851.19
2023-08-29T03:18:46.981Z,93845.59
2023-08-29T03:21:13.830Z,93847.63
2023-08-29T03:23:40.565Z,93838.97
2023-08-29T03:26:10.786Z,93843.28
2023-08-29T03:28:38.206Z,93838.41
2023-08-29T03:31:11.841Z,93834.06
2023-08-29T03:33:39.565Z,93835.72
2023-08-29T03:36:29.896Z,93834.09
2023-08-29T03:38:57.160Z,93835.38
2023-08-29T03:41:24.230Z,93819.59
2023-08-29T03:43:52.753Z,93828.00
2023-08-29T03:46:19.808Z,93832.38
2023-08-29T03:48:47.267Z,93822.63
2023-08-29T03:51:14.089Z,93836.19
2023-08-29T03:53:40.814Z,93831.97
2023-08-29T03:56:09.788Z,93831.94
2023-08-29T03:58:37.704Z,93835.25
2023-08-29T04:01:07.542Z,93841.53
2023-08-29T04:03:35.595Z,93839.72
2023-08-29T04:06:05.633Z,93833.53
2023-08-29T04:08:32.789Z,93844.72
2023-08-29T04:11:00.137Z,93847.25
2023-08-29T04:13:47.074Z,93848.09
2023-08-29T04:16:14.546Z,93844.88
2023-08-29T04:19:01.762Z,93847.28
2023-08-29T04:21:30.129Z,93845.44
2023-08-29T04:23:56.934Z,93849.75
2023-08-29T04:26:23.755Z,93851.06
2023-08-29T04:28:54.296Z,93847.16
2023-08-29T04:31:21.470Z,93853.00
2023-08-29T04:33:48.598Z,93858.16
2023-08-29T04:36:15.710Z,93863.31
2023-08-29T04:38:43.004Z,93853.50
2023-08-29T04:41:10.122Z,93869.00
2023-08-29T04:43:37.425Z,93854.16
2023-08-29T04:46:04.688Z,93860.59
2023-08-29T04:48:31.692Z,93851.47
2023-08-29T04:50:58.718Z,93854.22
2023-08-29T04:53:26.283Z,93865.31
2023-08-29T04:56:02.515Z,93855.53
2023-08-29T04:58:29.931Z,93856.31
2023-08-29T05:00:57.586Z,93854.72
2023-08-29T05:03:27.317Z,93856.91
2023-08-29T05:05:54.308Z,93861.53
2023-08-29T05:08:21.573Z,93861.91
2023-08-29T05:10:49.060Z,93863.53
2023-08-29T05:13:16.139Z,93861.53
2023-08-29T05:15:43.577Z,93859.75
2023-08-29T05:18:10.696Z,93856.47
2023-08-29T05:20:38.340Z,93857.38
2023-08-29T05:23:06.505Z,93856.72
2023-08-29T05:25:36.334Z,93852.84
2023-08-29T05:28:03.606Z,93849.31
2023-08-29T05:30:31.386Z,93855.81
2023-08-29T05:32:58.260Z,93852.63
2023-08-29T05:35:25.376Z,93860.00
2023-08-29T05:37:54.798Z,93859.13
2023-08-29T05:40:24.510Z,93868.88
2023-08-29T05:42:53.049Z,93873.34
2023-08-29T05:45:20.504Z,93874.50
2023-08-29T05:47:47.632Z,93875.84
2023-08-29T05:50:15.831Z,93878.31
2023-08-29T05:52:44.032Z,93880.13
2023-08-29T05:55:10.964Z,93874.81
2023-08-29T05:57:38.999Z,93878.69
2023-08-29T06:00:08.223Z,93875.38
2023-08-29T06:02:35.552Z,93877.00
2023-08-29T06:05:05.709Z,93879.56
2023-08-29T06:07:36.547Z,93887.81
2023-08-29T06:10:03.434Z,93888.66
2023-08-29T06:12:31.108Z,93886.28
2023-08-29T06:14:59.374Z,93881.56
2023-08-29T06:17:26.570Z,93886.50
2023-08-29T06:19:53.315Z,93882.06
2023-08-29T06:22:20.068Z,93888.19
2023-08-29T06:24:47.842Z,93882.72
2023-08-29T06:27:14.968Z,93879.84
2023-08-29T06:29:43.066Z,93890.84
2023-08-29T06:32:10.585Z,93886.53
2023-08-29T06:34:37.693Z,93881.47
2023-08-29T06:37:04.486Z,93887.84
2023-08-29T06:39:42.429Z,93886.63
2023-08-29T06:42:09.601Z,93896.69
2023-08-29T06:44:37.428Z,93889.81
2023-08-29T06:47:04.458Z,93895.97
2023-08-29T06:49:31.640Z,93889.81
2023-08-29T06:51:58.871Z,93887.25
2023-08-29T06:54:32.193Z,93900.03
2023-08-29T06:56:59.363Z,93891.31
2023-08-29T06:59:26.091Z,93889.88
2023-08-29T07:01:53.975Z,93889.56
2023-08-29T07:04:20.815Z,93898.34
2023-08-29T07:06:48.097Z,93899.88
2023-08-29T07:09:14.910Z,93889.38
2023-08-29T07:11:41.818Z,93890.22
2023-08-29T07:14:08.930Z,93886.97
2023-08-29T07:16:36.177Z,93887.41
2023-08-29T07:19:05.668Z,93898.78
2023-08-29T07:21:34.221Z,93896.28
2023-08-29T07:24:01.686Z,93903.84
2023-08-29T07:26:28.473Z,93907.72
2023-08-29T07:28:55.238Z,93914.56
2023-08-29T07:31:23.011Z,93903.50
2023-08-29T07:33:50.278Z,93907.78
2023-08-29T07:36:17.134Z,93899.88
2023-08-29T07:38:44.271Z,93902.34
2023-08-29T07:41:11.049Z,93904.03
2023-08-29T07:43:37.778Z,93910.16
2023-08-29T07:46:04.528Z,93910.84
2023-08-29T07:48:31.770Z,93913.03
2023-08-29T07:50:58.578Z,93904.28
2023-08-29T07:53:25.444Z,93908.00
2023-08-29T07:55:53.142Z,93915.34
2023-08-29T07:58:21.827Z,93917.69
2023-08-29T08:00:50.122Z,93917.56
2023-08-29T08:03:17.252Z,93922.88
2023-08-29T08:05:44.370Z,93923.88
2023-08-29T08:08:11.145Z,93920.81
2023-08-29T08:10:38.790Z,93928.97
2023-08-29T08:13:05.816Z,93920.63
2023-08-29T08:15:33.040Z,93925.97
2023-08-29T08:18:00.033Z,93923.03
2023-08-29T08:20:27.288Z,93921.47
2023-08-29T08:22:54.835Z,93914.34
2023-08-29T08:25:21.601Z,93912.00
2023-08-29T08:27:48.657Z,93918.53
2023-08-29T08:30:15.435Z,93920.41
2023-08-29T08:32:42.245Z,93916.38
2023-08-29T08:35:10.673Z,93922.13
2023-08-29T08:37:37.645Z,93915.00
2023-08-29T08:40:06.015Z,93918.81
2023-08-29T08:42:33.936Z,93915.22
2023-08-29T08:45:00.752Z,93920.38
2023-08-29T08:47:28.048Z,93924.06
2023-08-29T08:49:56.914Z,93918.72
2023-08-29T08:52:23.731Z,93919.38
2023-08-29T08:54:50.650Z,93925.84
2023-08-29T08:57:17.846Z,93917.94
2023-08-29T08:59:44.636Z,93915.66
2023-08-29T09:02:13.634Z,93923.53
2023-08-29T09:04:40.681Z,93924.56
2023-08-29T09:07:07.421Z,93922.50
2023-08-29T09:09:34.289Z,93924.34
2023-08-29T09:12:02.434Z,93913.56
2023-08-29T09:14:29.200Z,93922.41
2023-08-29T09:17:03.044Z,93922.16
2023-08-29T09:19:32.151Z,93925.78
2023-08-29T09:21:59.454Z,93921.63
2023-08-29T09:24:30.429Z,93928.84
2023-08-29T09:26:57.387Z,93928.13
2023-08-29T09:29:24.592Z,93922.31
2023-08-29T09:31:51.472Z,93921.72
2023-08-29T09:34:28.481Z,93928.13
2023-08-29T09:36:56.421Z,93929.97
2023-08-29T09:39:23.337Z,93924.06
2023-08-29T09:42:04.930Z,93929.66
2023-08-29T09:44:35.915Z,93934.78
2023-08-29T09:47:02.650Z,93928.38
2023-08-29T09:49:42.915Z,93930.59
2023-08-29T09:52:10.519Z,93942.16
2023-08-29T09:55:05.786Z,93930.63
2023-08-29T09:57:32.696Z,93932.16
2023-08-29T09:59:59.750Z,93931.66
2023-08-29T10:02:26.596Z,93926.78
2023-08-29T10:04:55.824Z,93931.84
2023-08-29T10:07:26.650Z,93935.44
2023-08-29T10:09:54.562Z,93926.94
2023-08-29T10:12:21.280Z,93925.75
2023-08-29T10:14:48.438Z,93924.41
2023-08-29T10:17:31.174Z,93926.28
2023-08-29T10:19:59.630Z,93919.84
2023-08-29T10:22:30.241Z,93916.56
2023-08-29T10:24:58.732Z,93925.03
2023-08-29T10:27:25.499Z,93913.78
2023-08-29T10:30:10.160Z,93917.66
2023-08-29T10:32:38.659Z,93921.69
2023-08-29T10:35:07.360Z,93918.78
2023-08-29T10:37:34.291Z,93916.38
2023-08-29T10:40:11.006Z,93908.44
2023-08-29T10:42:56.641Z,93901.88
2023-08-29T10:46:02.425Z,93906.19
2023-08-29T10:48:32.080Z,93909.97
2023-08-29T10:51:12.658Z,93908.94
2023-08-29T10:53:42.270Z,93904.19
2023-08-29T10:56:09.047Z,93912.91
2023-08-29T10:58:38.247Z,93909.81
2023-08-29T11:01:05.097Z,93907.31
2023-08-29T11:04:01.845Z,93912.59
2023-08-29T11:06:48.941Z,93916.69
2023-08-29T11:09:16.679Z,93915.22
2023-08-29T11:11:43.406Z,93912.78
2023-08-29T11:14:10.203Z,93910.72
2023-08-29T11:16:37.132Z,93914.88
2023-08-29T11:19:14.580Z,93903.38
2023-08-29T11:21:44.032Z,93902.53
2023-08-29T11:26:44.249Z,93903.59
2023-08-29T11:29:11.588Z,93901.91
2023-08-29T11:31:39.860Z,93903.06
2023-08-29T11:34:19.621Z,93901.06
2023-08-29T11:36:50.445Z,93898.19
2023-08-29T11:39:21.433Z,93904.41
2023-08-29T11:42:09.842Z,93900.66
2023-08-29T11:45:33.883Z,93900.66
2023-08-29T11:47:26.044Z,93907.09
2023-08-29T11:49:52.888Z,93906.47
2023-08-29T11:52:19.641Z,93905.13
2023-08-29T11:54:50.501Z,93904.88
2023-08-29T11:57:17.591Z,93913.06
2023-08-29T12:00:22.879Z,93914.81
2023-08-29T12:02:49.647Z,93903.78
2023-08-29T12:05:16.426Z,93913.03
2023-08-29T12:08:22.371Z,93918.34
2023-08-29T12:10:56.103Z,93914.59
2023-08-29T12:13:23.150Z,93917.69
2023-08-29T12:15:50.996Z,93926.13
2023-08-29T12:18:24.581Z,93920.75
2023-08-29T12:20:52.934Z,93924.75
2023-08-29T12:23:26.625Z,93926.19
2023-08-29T12:26:01.037Z,93920.06
2023-08-29T12:28:27.765Z,93924.41
2023-08-29T12:30:54.531Z,93918.16
2023-08-29T12:33:21.878Z,93928.84
2023-08-29T12:35:49.220Z,93924.25
2023-08-29T12:38:15.959Z,93922.25
2023-08-29T12:40:43.313Z,93928.56
2023-08-29T12:43:10.226Z,93913.88
2023-08-29T12:45:52.821Z,93912.13
2023-08-29T12:48:25.090Z,93922.59
2023-08-29T12:50:52.145Z,93927.88
2023-08-29T12:53:18.941Z,93926.53
2023-08-29T12:55:45.713Z,93924.97
2023-08-29T12:58:12.555Z,93922.06
2023-08-29T13:00:40.732Z,93916.63
2023-08-29T13:03:07.540Z,93912.78
2023-08-29T13:05:34.385Z,93910.00
2023-08-29T13:08:01.188Z,93904.41
2023-08-29T13:10:50.951Z,93911.44
2023-08-29T13:13:17.916Z,93913.03
2023-08-29T13:15:50.999Z,93916.66
2023-08-29T13:18:18.579Z,93909.34
2023-08-29T13:20:45.683Z,93904.94
2023-08-29T13:23:12.801Z,93912.78
2023-08-29T13:25:39.636Z,93910.00
2023-08-29T13:28:06.690Z,93914.59
2023-08-29T13:30:33.808Z,93916.06
2023-08-29T13:33:00.564Z,93909.44
2023-08-29T13:35:30.083Z,93907.69
2023-08-29T13:37:57.395Z,93909.91
2023-08-29T13:40:25.263Z,93911.16
2023-08-29T13:42:52.446Z,93909.28
2023-08-29T13:45:19.350Z,93903.25
2023-08-29T13:47:47.284Z,93909.19
2023-08-29T13:50:14.130Z,93906.13
2023-08-29T13:52:40.858Z,93903.16
2023-08-29T13:55:08.032Z,93904.06
2023-08-29T13:57:35.238Z,93896.81
2023-08-29T14:00:02.605Z,93904.81
2023-08-29T14:02:30.500Z,93893.41
2023-08-29T14:04:58.441Z,93900.53
2023-08-29T14:07:25.778Z,93903.56
2023-08-29T14:09:52.530Z,93906.44
2023-08-29T14:12:19.253Z,93896.69
2023-08-29T14:14:45.986Z,93893.13
2023-08-29T14:17:12.736Z,93899.88
2023-08-29T14:19:39.870Z,93901.34
2023-08-29T14:22:06.635Z,93889.28
2023-08-29T14:24:33.366Z,93900.97
2023-08-29T14:27:00.126Z,93901.91
2023-08-29T14:29:50.062Z,93903.00
2023-08-29T14:32:16.851Z,93910.78
2023-08-29T14:34:44.000Z,93909.56
2023-08-29T14:37:35.547Z,93915.00
2023-08-29T14:40:02.471Z,93908.59
2023-08-29T14:42:29.259Z,93905.34
2023-08-29T14:44:59.399Z,93905.38
2023-08-29T14:47:26.216Z,93909.63
2023-08-29T14:49:56.037Z,93904.03
2023-08-29T14:52:28.255Z,93902.59
2023-08-29T14:54:55.003Z,93909.63
2023-08-29T14:57:23.091Z,93906.66
2023-08-29T14:59:49.927Z,93906.06
2023-08-29T15:02:16.831Z,93898.78
2023-08-29T15:04:43.587Z,93901.47
2023-08-29T15:07:11.619Z,93906.63
2023-08-29T15:09:38.392Z,93899.78
2023-08-29T15:12:05.360Z,93897.88
2023-08-29T15:14:32.095Z,93888.06
2023-08-29T15:16:59.219Z,93886.31
2023-08-29T15:19:26.156Z,93897.16
2023-08-29T15:21:53.358Z,93885.59
2023-08-29T15:24:20.373Z,93894.66
2023-08-29T15:26:48.832Z,93884.00
2023-08-29T15:29:17.396Z,93898.31
2023-08-29T15:31:44.628Z,93881.09
2023-08-29T15:34:11.434Z,93885.44
2023-08-29T15:36:38.178Z,93899.28
2023-08-29T15:39:04.882Z,93899.38
2023-08-29T15:41:31.662Z,93894.34
2023-08-29T15:43:58.404Z,93900.88
2023-08-29T15:46:25.202Z,93898.28
2023-08-29T15:48:52.223Z,93899.47
2023-08-29T15:51:19.400Z,93902.53
2023-08-29T15:53:46.144Z,93903.84
2023-08-29T15:56:12.920Z,93907.13
2023-08-29T15:58:41.139Z,93896.38
2023-08-29T16:01:08.236Z,93900.88
2023-08-29T16:03:35.161Z,93896.53
2023-08-29T16:06:02.121Z,93894.53
2023-08-29T16:08:28.889Z,93904.19
2023-08-29T16:10:56.069Z,93900.34
2023-08-29T16:13:23.164Z,93900.25
2023-08-29T16:15:49.889Z,93906.78
2023-08-29T16:18:16.689Z,93906.72
2023-08-29T16:20:43.578Z,93915.88
2023-08-29T16:23:10.391Z,93911.19
2023-08-29T16:25:37.294Z,93909.47
2023-08-29T16:28:04.698Z,93909.84
2023-08-29T16:30:31.938Z,93911.81
2023-08-29T16:33:06.869Z,93909.56
2023-08-29T16:35:35.250Z,93907.44
2023-08-29T16:38:02.545Z,93912.06
2023-08-29T16:40:44.849Z,93907.41
2023-08-29T16:43:11.590Z,93916.16
2023-08-29T16:45:38.407Z,93912.78
2023-08-29T16:48:05.981Z,93910.56
2023-08-29T16:50:33.069Z,93915.50
2023-08-29T16:53:00.117Z,93921.72
2023-08-29T16:55:27.527Z,93915.63
2023-08-29T16:57:56.545Z,93914.78
2023-08-29T17:00:25.694Z,93930.72
2023-08-29T17:02:52.993Z,93918.75
2023-08-29T17:05:20.267Z,93925.19
2023-08-29T17:07:47.012Z,93925.34
2023-08-29T17:10:13.915Z,93922.59
2023-08-29T17:12:41.127Z,93923.72
2023-08-29T17:15:10.534Z,93922.97
2023-08-29T17:17:37.814Z,93928.78
2023-08-29T17:20:05.333Z,93925.59
2023-08-29T17:22:32.140Z,93930.84
2023-08-29T17:25:00.937Z,93930.06
2023-08-29T17:27:27.793Z,93924.16
2023-08-29T17:29:54.904Z,93924.63
2023-08-29T17:32:22.027Z,93925.78
2023-08-29T17:34:49.262Z,93926.50
2023-08-29T17:37:16.108Z,93933.16
2023-08-29T17:39:43.854Z,93925.78
2023-08-29T17:42:10.586Z,93920.47
2023-08-29T17:44:37.362Z,93922.19
2023-08-29T17:47:04.101Z,93934.72
2023-08-29T17:49:31.012Z,93927.59
2023-08-29T17:51:58.184Z,93929.88
2023-08-29T17:54:25.257Z,93929.38
2023-08-29T17:56:52.000Z,93925.78
2023-08-29T17:59:18.771Z,93923.75
2023-08-29T18:01:45.557Z,93927.59
2023-08-29T18:04:12.347Z,93930.97
2023-08-29T18:06:39.509Z,93921.50
2023-08-29T18:09:06.297Z,93928.41
2023-08-29T18:11:33.152Z,93926.63
2023-08-29T18:14:00.165Z,93927.38
2023-08-29T18:16:26.944Z,93925.59
2023-08-29T18:18:53.721Z,93929.22
2023-08-29T18:21:20.481Z,93925.88
2023-08-29T18:23:47.317Z,93929.72
2023-08-29T18:26:14.453Z,93929.47
2023-08-29T18:28:41.700Z,93934.31
2023-08-29T18:31:25.829Z,93941.50
2023-08-29T18:33:52.563Z,93939.97
2023-08-29T18:36:19.287Z,93940.97
2023-08-29T18:38:46.379Z,93945.34
2023-08-29T18:41:13.332Z,93949.19
2023-08-29T18:43:40.079Z,93946.63
2023-08-29T18:46:07.268Z,93950.97
2023-08-29T18:48:35.488Z,93951.25
2023-08-29T18:51:02.334Z,93956.38
2023-08-29T18:53:32.076Z,93946.38
2023-08-29T18:55:59.136Z,93961.47
2023-08-29T18:58:26.020Z,93954.84
2023-08-29T19:00:53.148Z,93954.81
2023-08-29T19:03:20.280Z,93955.84
2023-08-29T19:05:47.390Z,93956.91
2023-08-29T19:08:14.214Z,93963.03
2023-08-29T19:10:42.554Z,93948.69
2023-08-29T19:13:09.295Z,93960.72
2023-08-29T19:15:36.161Z,93963.03
2023-08-29T19:18:03.750Z,93968.66
2023-08-29T19:20:31.238Z,93960.97
2023-08-29T19:22:58.478Z,93956.59
2023-08-29T19:25:26.542Z,93965.31
2023-08-29T19:27:53.608Z,93973.03
2023-08-29T19:30:21.136Z,93966.31
2023-08-29T19:32:47.967Z,93959.19
2023-08-29T19:35:15.187Z,93964.03
2023-08-29T19:37:43.426Z,93966.38
2023-08-29T19:40:10.825Z,93957.38
2023-08-29T19:42:37.682Z,93959.19
2023-08-29T19:45:05.442Z,93961.50
2023-08-29T19:47:32.815Z,93963.03
2023-08-29T19:50:00.318Z,93958.94
2023-08-29T19:52:27.440Z,93963.78
2023-08-29T19:54:54.518Z,93959.69
2023-08-29T19:57:22.778Z,93954.81
2023-08-29T19:59:49.532Z,93952.28
2023-08-29T20:02:16.813Z,93954.31
2023-08-29T20:04:44.144Z,93961.25
2023-08-29T20:07:10.997Z,93960.94
2023-08-29T20:09:38.188Z,93966.88
2023-08-29T20:12:05.601Z,93973.03
2023-08-29T20:14:33.192Z,93966.38
2023-08-29T20:16:59.985Z,93960.19
2023-08-29T20:19:27.862Z,93956.09
2023-08-29T20:21:55.966Z,93957.38
2023-08-29T20:24:22.995Z,93952.75
2023-08-29T20:26:50.748Z,93960.97
2023-08-29T20:29:17.886Z,93957.09
2023-08-29T20:31:45.033Z,93952.00
2023-08-29T20:34:12.791Z,93951.22
2023-08-29T20:36:39.552Z,93942.00
2023-08-29T20:39:07.724Z,93954.84
2023-08-29T20:41:35.033Z,93951.25
2023-08-29T20:44:01.768Z,93948.41
2023-08-29T20:46:28.958Z,93940.72
2023-08-29T20:48:56.198Z,93944.56
2023-08-29T20:51:23.237Z,93948.16
2023-08-29T20:53:50.090Z,93935.56
2023-08-29T20:56:16.885Z,93941.19
2023-08-29T20:58:43.623Z,93934.56
2023-08-29T21:01:10.830Z,93936.88
2023-08-29T21:03:37.863Z,93933.81
2023-08-29T21:06:05.074Z,93943.03
2023-08-29T21:08:31.866Z,93928.94
2023-08-29T21:10:59.735Z,93926.13
2023-08-29T21:13:29.643Z,93934.56
2023-08-29T21:15:56.775Z,93928.44
2023-08-29T21:18:23.563Z,93924.59
2023-08-29T21:21:01.286Z,93922.03
2023-08-29T21:23:31.611Z,93916.91
2023-08-29T21:25:59.893Z,93917.69
2023-08-29T21:28:27.196Z,93920.22
2023-08-29T21:30:54.393Z,93917.19
2023-08-29T21:33:21.149Z,93912.81
2023-08-29T21:35:48.992Z,93909.75
2023-08-29T21:38:16.074Z,93906.69
2023-08-29T21:40:43.743Z,93907.44
2023-08-29T21:43:11.740Z,93896.94
2023-08-29T21:45:38.763Z,93900.50
2023-08-29T21:48:11.814Z,93904.09
2023-08-29T21:50:42.710Z,93902.06
2023-08-29T21:53:10.852Z,93898.97
2023-08-29T21:55:42.032Z,93901.53
2023-08-29T21:58:09.913Z,93891.56
2023-08-29T22:00:39.761Z,93884.63
2023-08-29T22:03:06.687Z,93892.56
2023-08-29T22:05:33.943Z,93890.00
2023-08-29T22:08:00.827Z,93884.66
2023-08-29T22:10:27.727Z,93882.84
2023-08-29T22:12:54.507Z,93879.00
2023-08-29T22:15:21.815Z,93879.25
2023-08-29T22:17:48.928Z,93876.44
2023-08-29T22:20:17.138Z,93872.63
2023-08-29T22:22:43.919Z,93869.28
2023-08-29T22:25:23.782Z,93870.31
2023-08-29T22:27:53.751Z,93871.31
2023-08-29T22:30:20.933Z,93873.84
2023-08-29T22:32:48.316Z,93867.44
2023-08-29T22:35:16.986Z,93871.78
2023-08-29T22:37:44.090Z,93876.66
2023-08-29T22:40:11.850Z,93874.88
2023-08-29T22:42:38.663Z,93868.22
2023-08-29T22:45:07.368Z,93876.91
2023-08-29T22:47:34.330Z,93871.28
2023-08-29T22:50:01.633Z,93868.69
2023-08-29T22:52:28.520Z,93871.03
2023-08-29T22:54:56.673Z,93871.50
2023-08-29T22:57:23.782Z,93868.94
2023-08-29T22:59:50.514Z,93857.69
2023-08-29T23:02:17.251Z,93863.06
2023-08-29T23:04:44.894Z,93869.66
2023-08-29T23:07:12.617Z,93862.22
2023-08-29T23:09:40.798Z,93863.78
2023-08-29T23:12:08.432Z,93857.66
2023-08-29T23:14:35.792Z,93861.72
2023-08-29T23:17:02.557Z,93862.25
2023-08-29T23:19:29.851Z,93862.78
2023-08-29T23:21:56.957Z,93863.53
2023-08-29T23:24:24.207Z,93864.31
2023-08-29T23:26:50.994Z,93861.72
2023-08-29T23:29:18.185Z,93860.97
2023-08-29T23:31:44.918Z,93866.38
2023-08-29T23:34:11.984Z,93862.00
2023-08-29T23:36:38.866Z,93861.72
2023-08-29T23:39:05.769Z,93862.25
2023-08-29T23:41:32.969Z,93857.41
2023-08-29T23:43:59.746Z,93860.44
2023-08-29T23:46:27.919Z,93863.25
2023-08-29T23:48:55.289Z,93860.44
2023-08-29T23:51:22.133Z,93857.13
2023-08-29T23:53:49.249Z,93864.75
2023-08-29T23:56:16.821Z,93863.69
2023-08-29T23:58:44.050Z,93860.09
